createdAt,value
2024-03-13T00:00:26.246Z,99.90
2024-03-13T00:01:28.320Z,99.90
2024-03-13T00:02:36.041Z,99.90
2024-03-13T00:03:38.013Z,99.90
2024-03-13T00:04:44.856Z,99.90
2024-03-13T00:05:49.131Z,99.90
2024-03-13T00:06:52.312Z,99.90
2024-03-13T00:07:54.848Z,99.90
2024-03-13T00:08:58.008Z,99.90
2024-03-13T00:10:02.463Z,99.90
2024-03-13T00:11:04.981Z,99.90
2024-03-13T00:12:08.022Z,99.90
2024-03-13T00:13:10.022Z,99.90
2024-03-13T00:14:12.908Z,99.90
2024-03-13T00:15:14.939Z,99.90
2024-03-13T00:16:17.906Z,99.90
2024-03-13T00:17:21.408Z,99.90
2024-03-13T00:18:24.303Z,99.90
2024-03-13T00:19:26.468Z,99.90
2024-03-13T00:20:31.376Z,99.90
2024-03-13T00:21:37.032Z,99.90
2024-03-13T00:22:41.757Z,99.90
2024-03-13T00:23:43.809Z,99.90
2024-03-13T00:24:47.198Z,99.90
2024-03-13T00:25:51.482Z,99.90
2024-03-13T00:26:57.663Z,99.90
2024-03-13T00:28:00.594Z,99.90
2024-03-13T00:29:05.447Z,99.90
2024-03-13T00:30:09.800Z,99.90
2024-03-13T00:31:13.937Z,99.90
2024-03-13T00:32:17.959Z,99.90
2024-03-13T00:33:20.946Z,99.90
2024-03-13T00:34:22.976Z,99.90
2024-03-13T00:35:26.575Z,99.90
2024-03-13T00:36:29.348Z,99.90
2024-03-13T00:37:32.418Z,99.90
2024-03-13T00:38:34.813Z,99.90
2024-03-13T00:39:37.803Z,99.90
2024-03-13T00:40:40.377Z,99.90
2024-03-13T00:41:45.522Z,99.90
2024-03-13T00:42:47.644Z,99.90
2024-03-13T00:43:49.962Z,99.90
2024-03-13T00:44:54.400Z,99.90
2024-03-13T00:45:56.719Z,99.90
2024-03-13T00:46:59.667Z,99.90
2024-03-13T00:48:01.632Z,99.90
2024-03-13T00:49:04.676Z,99.90
2024-03-13T00:50:08.953Z,99.90
2024-03-13T00:51:11.847Z,99.90
2024-03-13T00:52:13.899Z,99.90
2024-03-13T00:53:16.927Z,99.90
2024-03-13T00:54:18.929Z,99.90
2024-03-13T00:55:23.037Z,99.90
2024-03-13T00:56:30.387Z,99.90
2024-03-13T00:57:36.583Z,99.90
2024-03-13T00:58:38.616Z,99.90
2024-03-13T00:59:41.947Z,99.90
2024-03-13T01:00:43.998Z,99.90
2024-03-13T01:01:49.526Z,99.90
2024-03-13T01:02:52.455Z,99.90
2024-03-13T01:03:59.201Z,99.90
2024-03-13T01:05:01.225Z,99.90
2024-03-13T01:06:05.727Z,99.90
2024-03-13T01:07:08.282Z,99.90
2024-03-13T01:08:11.424Z,99.90
2024-03-13T01:09:14.339Z,99.90
2024-03-13T01:10:17.836Z,99.90
2024-03-13T01:11:19.946Z,99.90
2024-03-13T01:12:22.991Z,99.90
2024-03-13T01:13:28.228Z,99.90
2024-03-13T01:14:30.347Z,99.90
2024-03-13T01:15:33.639Z,99.90
2024-03-13T01:16:36.063Z,99.90
2024-03-13T01:17:39.449Z,99.90
2024-03-13T01:18:42.364Z,99.90
2024-03-13T01:19:45.381Z,99.90
2024-03-13T01:20:48.045Z,99.90
2024-03-13T01:21:54.563Z,99.90
2024-03-13T01:22:57.463Z,99.90
2024-03-13T01:24:00.452Z,99.90
2024-03-13T01:25:02.816Z,99.90
2024-03-13T01:26:07.034Z,99.90
2024-03-13T01:27:08.962Z,99.90
2024-03-13T01:28:11.015Z,99.90
2024-03-13T01:29:15.902Z,99.90
2024-03-13T01:30:18.837Z,99.90
2024-03-13T01:31:23.617Z,99.90
2024-03-13T01:32:26.784Z,99.90
2024-03-13T01:33:30.108Z,99.90
2024-03-13T01:34:32.161Z,99.90
2024-03-13T01:35:36.192Z,99.90
2024-03-13T01:36:57.242Z,99.90
2024-03-13T01:38:00.126Z,99.90
2024-03-13T01:39:02.344Z,99.90
2024-03-13T01:40:07.591Z,99.90
2024-03-13T01:41:28.412Z,99.90
2024-03-13T01:42:49.058Z,99.90
2024-03-13T01:44:18.570Z,99.90
2024-03-13T01:45:56.304Z,99.90
2024-03-13T01:47:32.371Z,99.90
2024-03-13T01:48:53.800Z,99.90
2024-03-13T01:50:14.012Z,99.90
2024-03-13T01:51:35.241Z,99.90
2024-03-13T01:52:55.544Z,99.90
2024-03-13T01:54:16.503Z,99.90
2024-03-13T01:55:26.667Z,99.90
2024-03-13T01:56:31.239Z,99.90
2024-03-13T01:57:34.061Z,99.90
2024-03-13T01:58:41.952Z,99.90
2024-03-13T01:59:50.484Z,99.90
2024-03-13T02:01:13.439Z,99.90
2024-03-13T02:02:26.535Z,99.90
2024-03-13T02:03:29.618Z,99.90
2024-03-13T02:04:31.589Z,99.90
2024-03-13T02:05:34.961Z,99.90
2024-03-13T02:06:37.376Z,99.90
2024-03-13T02:07:40.422Z,99.90
2024-03-13T02:08:42.608Z,99.90
2024-03-13T02:09:45.741Z,99.90
2024-03-13T02:10:48.189Z,99.90
2024-03-13T02:11:51.510Z,99.90
2024-03-13T02:13:03.614Z,99.90
2024-03-13T02:14:06.976Z,99.90
2024-03-13T02:15:09.650Z,99.90
2024-03-13T02:16:12.750Z,99.90
2024-03-13T02:17:14.984Z,99.90
2024-03-13T02:18:22.333Z,99.90
2024-03-13T02:19:27.272Z,99.90
2024-03-13T02:20:30.053Z,99.90
2024-03-13T02:21:34.054Z,99.90
2024-03-13T02:22:37.743Z,99.90
2024-03-13T02:23:40.827Z,99.90
2024-03-13T02:24:43.110Z,99.90
2024-03-13T02:25:46.307Z,99.90
2024-03-13T02:26:48.335Z,99.90
2024-03-13T02:27:53.280Z,99.90
2024-03-13T02:28:55.333Z,99.90
2024-03-13T02:29:59.146Z,99.90
2024-03-13T02:31:01.543Z,99.90
2024-03-13T02:32:04.568Z,99.90
2024-03-13T02:33:06.585Z,99.90
2024-03-13T02:34:09.729Z,99.90
2024-03-13T02:35:12.368Z,99.90
2024-03-13T02:36:15.376Z,99.90
2024-03-13T02:37:17.640Z,99.90
2024-03-13T02:38:21.193Z,99.90
2024-03-13T02:39:23.192Z,99.90
2024-03-13T02:40:26.309Z,99.90
2024-03-13T02:41:28.575Z,99.90
2024-03-13T02:42:31.541Z,99.90
2024-03-13T02:43:35.934Z,99.90
2024-03-13T02:44:39.019Z,99.90
2024-03-13T02:45:41.838Z,99.90
2024-03-13T02:46:45.274Z,99.90
2024-03-13T02:47:47.342Z,99.90
2024-03-13T02:48:50.439Z,99.90
2024-03-13T02:49:52.437Z,99.90
2024-03-13T02:50:55.442Z,99.90
2024-03-13T02:51:57.581Z,99.90
2024-03-13T02:52:59.685Z,99.90
2024-03-13T02:54:02.807Z,99.90
2024-03-13T02:55:05.219Z,99.90
2024-03-13T02:56:09.175Z,99.90
2024-03-13T02:57:11.275Z,99.90
2024-03-13T02:58:14.812Z,99.90
2024-03-13T02:59:19.131Z,99.90
2024-03-13T03:00:22.515Z,99.90
2024-03-13T03:01:24.857Z,99.90
2024-03-13T03:02:28.984Z,99.90
2024-03-13T03:03:31.447Z,99.90
2024-03-13T03:04:34.484Z,99.90
2024-03-13T03:05:36.864Z,99.90
2024-03-13T03:06:39.934Z,99.90
2024-03-13T03:07:42.072Z,99.90
2024-03-13T03:08:45.932Z,99.90
2024-03-13T03:09:48.012Z,99.90
2024-03-13T03:10:51.697Z,99.90
2024-03-13T03:11:53.826Z,99.90
2024-03-13T03:12:56.859Z,99.90
2024-03-13T03:13:59.026Z,99.90
2024-03-13T03:15:02.451Z,99.90
2024-03-13T03:16:05.106Z,99.90
2024-03-13T03:17:08.798Z,99.90
2024-03-13T03:18:12.707Z,99.90
2024-03-13T03:19:20.673Z,99.90
2024-03-13T03:20:22.718Z,99.90
2024-03-13T03:21:24.739Z,99.90
2024-03-13T03:22:28.079Z,99.90
2024-03-13T03:23:30.470Z,99.90
2024-03-13T03:24:32.598Z,99.90
2024-03-13T03:25:35.769Z,99.90
2024-03-13T03:26:38.061Z,99.90
2024-03-13T03:27:41.447Z,99.90
2024-03-13T03:28:43.526Z,99.90
2024-03-13T03:29:46.488Z,99.90
2024-03-13T03:30:49.981Z,99.90
2024-03-13T03:31:53.216Z,99.90
2024-03-13T03:32:55.361Z,99.90
2024-03-13T03:33:58.408Z,99.90
2024-03-13T03:35:00.546Z,99.90
2024-03-13T03:36:03.950Z,99.90
2024-03-13T03:37:05.946Z,99.90
2024-03-13T03:38:08.388Z,99.90
2024-03-13T03:39:16.142Z,99.90
2024-03-13T03:40:18.842Z,99.90
2024-03-13T03:41:21.931Z,99.90
2024-03-13T03:42:25.347Z,99.90
2024-03-13T03:43:28.404Z,99.90
2024-03-13T03:44:31.007Z,99.90
2024-03-13T03:45:34.920Z,99.90
2024-03-13T03:46:37.263Z,99.90
2024-03-13T03:47:40.806Z,99.90
2024-03-13T03:48:42.902Z,99.90
2024-03-13T03:49:46.282Z,99.90
2024-03-13T03:50:48.295Z,99.90
2024-03-13T03:51:51.344Z,99.90
2024-03-13T03:52:53.445Z,99.90
2024-03-13T03:53:56.423Z,99.90
2024-03-13T03:54:58.506Z,99.90
2024-03-13T03:56:01.989Z,99.90
2024-03-13T03:57:04.994Z,99.90
2024-03-13T03:58:08.941Z,99.90
2024-03-13T03:59:11.254Z,99.90
2024-03-13T04:00:14.633Z,99.90
2024-03-13T04:01:17.095Z,99.90
2024-03-13T04:02:20.725Z,99.90
2024-03-13T04:03:22.751Z,99.90
2024-03-13T04:04:27.518Z,99.90
2024-03-13T04:05:30.997Z,99.90
2024-03-13T04:06:33.063Z,99.90
2024-03-13T04:07:36.675Z,99.90
2024-03-13T04:08:39.509Z,99.90
2024-03-13T04:09:42.520Z,99.90
2024-03-13T04:10:44.649Z,99.90
2024-03-13T04:11:48.025Z,99.90
2024-03-13T04:12:50.759Z,99.90
2024-03-13T04:13:54.152Z,99.90
2024-03-13T04:14:56.270Z,99.90
2024-03-13T04:15:59.460Z,99.90
2024-03-13T04:17:01.840Z,99.90
2024-03-13T04:18:05.760Z,99.90
2024-03-13T04:19:11.749Z,99.90
2024-03-13T04:20:18.806Z,99.90
2024-03-13T04:21:21.313Z,99.90
2024-03-13T04:22:27.543Z,99.90
2024-03-13T04:23:30.810Z,99.90
2024-03-13T04:24:33.833Z,99.90
2024-03-13T04:25:38.336Z,99.90
2024-03-13T04:26:41.560Z,99.90
2024-03-13T04:27:43.896Z,99.90
2024-03-13T04:28:46.857Z,99.90
2024-03-13T04:29:48.954Z,99.90
2024-03-13T04:30:52.031Z,99.90
2024-03-13T04:31:54.324Z,99.90
2024-03-13T04:32:58.657Z,99.90
2024-03-13T04:34:00.830Z,99.90
2024-03-13T04:35:04.297Z,99.90
2024-03-13T04:36:06.510Z,99.90
2024-03-13T04:37:09.671Z,99.90
2024-03-13T04:38:14.327Z,99.90
2024-03-13T04:39:17.568Z,99.90
2024-03-13T04:40:21.159Z,99.90
2024-03-13T04:41:24.034Z,99.90
2024-03-13T04:42:26.470Z,99.90
2024-03-13T04:43:29.714Z,99.90
2024-03-13T04:44:32.033Z,99.90
2024-03-13T04:45:36.080Z,99.90
2024-03-13T04:46:38.189Z,99.90
2024-03-13T04:47:41.631Z,99.90
2024-03-13T04:48:44.771Z,99.90
2024-03-13T04:49:48.151Z,99.90
2024-03-13T04:50:50.489Z,99.90
2024-03-13T04:51:53.630Z,99.90
2024-03-13T04:52:55.690Z,99.90
2024-03-13T04:53:58.807Z,99.90
2024-03-13T04:55:00.970Z,99.90
2024-03-13T04:56:04.435Z,99.90
2024-03-13T04:57:06.997Z,99.90
2024-03-13T04:58:10.232Z,99.90
2024-03-13T04:59:12.368Z,99.90
2024-03-13T05:00:15.480Z,99.90
2024-03-13T05:01:19.925Z,99.90
2024-03-13T05:02:22.050Z,99.90
2024-03-13T05:03:25.014Z,99.90
2024-03-13T05:04:27.280Z,99.90
2024-03-13T05:05:30.569Z,99.90
2024-03-13T05:06:32.584Z,99.90
2024-03-13T05:07:36.150Z,99.90
2024-03-13T05:08:38.262Z,99.90
2024-03-13T05:09:42.542Z,99.90
2024-03-13T05:10:44.610Z,99.90
2024-03-13T05:11:48.375Z,99.90
2024-03-13T05:12:50.476Z,99.90
2024-03-13T05:13:55.601Z,99.90
2024-03-13T05:14:57.724Z,99.90
2024-03-13T05:16:00.886Z,99.90
2024-03-13T05:17:02.933Z,99.90
2024-03-13T05:18:05.994Z,99.90
2024-03-13T05:19:08.337Z,99.90
2024-03-13T05:20:12.804Z,99.90
2024-03-13T05:21:15.240Z,99.90
2024-03-13T05:22:18.381Z,99.90
2024-03-13T05:23:22.028Z,99.90
2024-03-13T05:24:25.166Z,99.90
2024-03-13T05:25:28.371Z,99.90
2024-03-13T05:26:32.095Z,99.90
2024-03-13T05:27:34.278Z,99.90
2024-03-13T05:28:38.265Z,99.90
2024-03-13T05:29:40.343Z,99.90
2024-03-13T05:30:43.541Z,99.90
2024-03-13T05:31:46.812Z,99.90
2024-03-13T05:32:49.770Z,99.90
2024-03-13T05:33:51.920Z,99.90
2024-03-13T05:34:54.376Z,99.90
2024-03-13T05:35:57.453Z,99.90
2024-03-13T05:36:59.511Z,99.90
2024-03-13T05:38:04.994Z,99.90
2024-03-13T05:39:07.191Z,99.90
2024-03-13T05:40:17.680Z,99.90
2024-03-13T05:41:20.759Z,99.90
2024-03-13T05:42:24.117Z,99.90
2024-03-13T05:43:27.473Z,99.90
2024-03-13T05:44:30.226Z,99.90
2024-03-13T05:45:36.035Z,99.90
2024-03-13T05:46:38.621Z,99.90
2024-03-13T05:47:42.314Z,99.90
2024-03-13T05:48:45.826Z,99.90
2024-03-13T05:49:48.987Z,99.90
2024-03-13T05:50:51.011Z,99.90
2024-03-13T05:51:55.981Z,99.90
2024-03-13T05:52:58.737Z,99.90
2024-03-13T05:54:01.919Z,99.90
2024-03-13T05:55:04.101Z,99.90
2024-03-13T05:56:07.476Z,99.90
2024-03-13T05:57:09.463Z,99.90
2024-03-13T05:58:12.722Z,99.90
2024-03-13T05:59:14.757Z,99.90
2024-03-13T06:00:20.230Z,99.90
2024-03-13T06:01:28.046Z,99.90
2024-03-13T06:02:31.946Z,99.90
2024-03-13T06:03:34.256Z,99.90
2024-03-13T06:04:38.524Z,99.90
2024-03-13T06:05:40.819Z,99.90
2024-03-13T06:06:44.177Z,99.90
2024-03-13T06:07:47.696Z,99.90
2024-03-13T06:08:51.141Z,99.90
2024-03-13T06:09:53.244Z,99.90
2024-03-13T06:10:56.332Z,99.90
2024-03-13T06:11:58.434Z,99.90
2024-03-13T06:13:02.563Z,99.90
2024-03-13T06:14:04.771Z,99.90
2024-03-13T06:15:09.063Z,99.90
2024-03-13T06:16:11.383Z,99.90
2024-03-13T06:17:15.353Z,99.90
2024-03-13T06:18:19.527Z,99.90
2024-03-13T06:19:22.729Z,99.90
2024-03-13T06:20:24.959Z,99.90
2024-03-13T06:21:28.078Z,99.90
2024-03-13T06:22:30.200Z,99.90
2024-03-13T06:23:33.428Z,99.90
2024-03-13T06:24:35.422Z,99.90
2024-03-13T06:25:42.677Z,99.90
2024-03-13T06:26:50.436Z,99.90
2024-03-13T06:28:02.222Z,99.90
2024-03-13T06:29:22.973Z,99.90
2024-03-13T06:30:25.071Z,99.90
2024-03-13T06:31:27.311Z,99.90
2024-03-13T06:32:30.837Z,99.90
2024-03-13T06:33:33.621Z,99.90
2024-03-13T06:34:38.139Z,99.90
2024-03-13T06:35:40.781Z,99.90
2024-03-13T06:36:43.773Z,99.90
2024-03-13T06:37:45.759Z,99.90
2024-03-13T06:38:48.842Z,99.90
2024-03-13T06:39:51.384Z,99.90
2024-03-13T06:40:54.399Z,99.90
2024-03-13T06:41:56.576Z,99.90
2024-03-13T06:42:59.900Z,99.90
2024-03-13T06:44:03.166Z,99.90
2024-03-13T06:45:06.363Z,99.90
2024-03-13T06:46:08.673Z,99.90
2024-03-13T06:47:12.370Z,99.90
2024-03-13T06:48:16.196Z,99.90
2024-03-13T06:49:18.644Z,99.90
2024-03-13T06:50:21.822Z,99.90
2024-03-13T06:51:25.027Z,99.90
2024-03-13T06:52:29.794Z,99.90
2024-03-13T06:53:31.863Z,99.90
2024-03-13T06:54:34.862Z,99.90
2024-03-13T06:55:37.110Z,99.90
2024-03-13T06:56:40.303Z,99.90
2024-03-13T06:57:42.314Z,99.90
2024-03-13T06:58:44.323Z,99.90
2024-03-13T06:59:47.740Z,99.90
2024-03-13T07:00:51.344Z,99.90
2024-03-13T07:01:57.191Z,99.90
2024-03-13T07:03:00.453Z,99.90
2024-03-13T07:04:04.526Z,99.90
2024-03-13T07:05:06.747Z,99.90
2024-03-13T07:06:12.610Z,99.90
2024-03-13T07:07:15.690Z,99.90
2024-03-13T07:08:19.147Z,99.90
2024-03-13T07:09:21.160Z,99.90
2024-03-13T07:10:23.346Z,99.90
2024-03-13T07:11:26.568Z,99.90
2024-03-13T07:12:28.917Z,99.90
2024-03-13T07:13:32.303Z,99.90
2024-03-13T07:14:34.468Z,99.90
2024-03-13T07:15:37.490Z,99.90
2024-03-13T07:16:40.039Z,99.90
2024-03-13T07:17:44.176Z,99.90
2024-03-13T07:18:48.169Z,99.90
2024-03-13T07:19:51.147Z,99.90
2024-03-13T07:20:53.209Z,99.90
2024-03-13T07:21:56.260Z,99.90
2024-03-13T07:22:58.714Z,99.90
2024-03-13T07:24:02.360Z,99.90
2024-03-13T07:25:07.191Z,99.90
2024-03-13T07:26:11.742Z,99.90
2024-03-13T07:27:14.214Z,99.90
2024-03-13T07:28:18.182Z,99.90
2024-03-13T07:29:20.402Z,99.90
2024-03-13T07:30:25.070Z,99.90
2024-03-13T07:31:27.803Z,99.90
2024-03-13T07:32:30.836Z,99.90
2024-03-13T07:33:33.117Z,99.90
2024-03-13T07:34:36.322Z,99.90
2024-03-13T07:35:39.110Z,99.90
2024-03-13T07:36:42.230Z,99.90
2024-03-13T07:37:44.443Z,99.90
2024-03-13T07:38:47.466Z,99.90
2024-03-13T07:39:49.512Z,99.90
2024-03-13T07:40:53.479Z,99.90
2024-03-13T07:41:55.625Z,99.90
2024-03-13T07:42:58.640Z,99.90
2024-03-13T07:44:00.670Z,99.90
2024-03-13T07:45:03.761Z,99.90
2024-03-13T07:46:06.290Z,99.90
2024-03-13T07:47:09.936Z,99.90
2024-03-13T07:48:12.083Z,99.90
2024-03-13T07:49:14.567Z,99.90
2024-03-13T07:50:17.804Z,99.90
2024-03-13T07:51:20.469Z,99.90
2024-03-13T07:52:23.488Z,99.90
2024-03-13T07:53:25.495Z,99.90
2024-03-13T07:54:28.551Z,99.90
2024-03-13T07:55:30.833Z,99.90
2024-03-13T07:56:34.207Z,99.90
2024-03-13T07:57:36.469Z,99.90
2024-03-13T07:58:39.453Z,99.90
2024-03-13T07:59:41.980Z,99.90
2024-03-13T08:00:45.906Z,99.90
2024-03-13T08:01:48.336Z,99.90
2024-03-13T08:02:52.520Z,99.90
2024-03-13T08:03:54.612Z,99.90
2024-03-13T08:04:59.208Z,99.90
2024-03-13T09:06:31.994Z,99.90
2024-03-13T09:07:35.261Z,99.90
2024-03-13T09:08:44.354Z,99.90
2024-03-13T09:09:51.663Z,99.90
2024-03-13T09:10:53.888Z,99.90
2024-03-13T09:11:57.223Z,99.90
2024-03-13T09:12:59.721Z,99.90
2024-03-13T09:14:05.032Z,99.90
2024-03-13T09:15:07.871Z,99.90
2024-03-13T09:16:13.959Z,99.90
2024-03-13T09:17:16.247Z,99.90
2024-03-13T09:18:19.348Z,99.90
2024-03-13T09:19:22.745Z,99.90
2024-03-13T09:20:27.255Z,99.90
2024-03-13T09:21:29.303Z,99.90
2024-03-13T09:22:32.317Z,99.90
2024-03-13T09:23:34.639Z,99.90
2024-03-13T09:24:37.651Z,99.90
2024-03-13T09:25:41.027Z,99.90
2024-03-13T09:26:44.835Z,99.90
2024-03-13T09:27:46.899Z,99.90
2024-03-13T09:28:51.967Z,99.90
2024-03-13T09:29:55.440Z,99.90
2024-03-13T09:30:58.457Z,99.90
2024-03-13T09:32:00.533Z,99.90
2024-03-13T09:33:09.238Z,99.90
2024-03-13T09:34:11.957Z,99.90
2024-03-13T09:35:18.983Z,99.90
2024-03-13T09:36:21.342Z,99.90
2024-03-13T09:37:26.200Z,99.90
2024-03-13T09:38:28.743Z,99.90
2024-03-13T09:39:32.035Z,99.90
2024-03-13T09:40:34.150Z,99.90
2024-03-13T09:41:37.150Z,99.90
2024-03-13T09:42:40.815Z,99.90
2024-03-13T09:43:42.931Z,99.90
2024-03-13T09:44:47.404Z,99.90
2024-03-13T09:45:49.927Z,99.90
2024-03-13T09:46:56.774Z,99.90
2024-03-13T09:47:59.536Z,99.90
2024-03-13T09:49:03.556Z,99.90
2024-03-13T09:50:07.948Z,99.90
2024-03-13T09:51:11.836Z,99.90
2024-03-13T09:52:15.857Z,99.90
2024-03-13T09:53:18.874Z,99.90
2024-03-13T09:54:20.909Z,99.90
2024-03-13T09:55:24.138Z,99.90
2024-03-13T09:56:26.844Z,99.90
2024-03-13T09:57:28.902Z,99.90
2024-03-13T09:58:31.972Z,99.90
2024-03-13T09:59:34.088Z,99.90
2024-03-13T10:00:37.084Z,99.90
2024-03-13T10:01:39.271Z,99.90
2024-03-13T10:02:43.056Z,99.90
2024-03-13T10:03:46.229Z,99.90
2024-03-13T10:04:49.845Z,99.90
2024-03-13T10:05:52.264Z,99.90
2024-03-13T10:06:57.920Z,99.90
2024-03-13T10:08:00.210Z,99.90
2024-03-13T10:09:03.333Z,99.90
2024-03-13T10:10:07.004Z,99.90
2024-03-13T10:11:10.319Z,99.90
2024-03-13T10:12:12.542Z,99.90
2024-03-13T10:13:15.612Z,99.90
2024-03-13T10:14:17.835Z,99.90
2024-03-13T10:15:20.989Z,99.90
2024-03-13T10:16:23.867Z,99.90
2024-03-13T10:17:27.454Z,99.90
2024-03-13T10:18:29.680Z,99.90
2024-03-13T10:19:32.806Z,99.90
2024-03-13T10:20:35.142Z,99.90
2024-03-13T10:21:38.164Z,99.90
2024-03-13T10:22:40.351Z,99.90
2024-03-13T10:23:44.617Z,99.90
2024-03-13T10:24:47.331Z,99.90
2024-03-13T10:25:50.556Z,99.90
2024-03-13T10:26:52.745Z,99.90
2024-03-13T10:27:56.017Z,99.90
2024-03-13T10:28:58.172Z,99.90
2024-03-13T10:30:01.275Z,99.90
2024-03-13T10:31:03.466Z,99.90
2024-03-13T10:32:06.637Z,99.90
2024-03-13T10:33:08.740Z,99.90
2024-03-13T10:34:11.834Z,99.90
2024-03-13T10:35:16.064Z,99.90
2024-03-13T10:36:20.301Z,99.90
2024-03-13T10:37:23.333Z,99.90
2024-03-13T10:38:26.344Z,99.90
2024-03-13T10:39:28.555Z,99.90
2024-03-13T10:40:31.009Z,99.90
2024-03-13T10:41:34.328Z,99.90
2024-03-13T10:42:36.431Z,99.90
2024-03-13T10:43:39.654Z,99.90
2024-03-13T10:44:42.095Z,99.90
2024-03-13T10:45:48.442Z,99.90
2024-03-13T10:46:50.926Z,99.90
2024-03-13T10:47:54.068Z,99.90
2024-03-13T10:48:56.757Z,99.90
2024-03-13T10:49:58.921Z,99.90
2024-03-13T10:51:03.970Z,99.90
2024-03-13T10:52:11.060Z,99.90
2024-03-13T10:53:14.110Z,99.90
2024-03-13T10:54:16.185Z,99.90
2024-03-13T10:55:19.194Z,99.90
2024-03-13T10:56:21.376Z,99.90
2024-03-13T10:57:25.027Z,99.90
2024-03-13T10:58:27.127Z,99.90
2024-03-13T10:59:30.671Z,99.90
2024-03-13T11:00:32.933Z,99.90
2024-03-13T11:01:35.936Z,99.90
2024-03-13T11:02:38.874Z,99.90
2024-03-13T11:03:40.983Z,99.90
2024-03-13T11:04:45.700Z,99.90
2024-03-13T11:05:49.343Z,99.90
2024-03-13T11:06:53.630Z,99.90
2024-03-13T11:07:55.750Z,99.90
2024-03-13T11:08:59.056Z,99.90
2024-03-13T11:10:01.335Z,99.90
2024-03-13T11:11:13.610Z,99.90
2024-03-13T11:12:22.241Z,99.90
2024-03-13T11:13:26.078Z,99.90
2024-03-13T11:14:28.174Z,99.90
2024-03-13T11:15:31.243Z,99.90
2024-03-13T11:16:33.325Z,99.90
2024-03-13T11:17:36.900Z,99.90
2024-03-13T11:18:39.534Z,99.90
2024-03-13T11:19:42.628Z,99.90
2024-03-13T11:20:45.455Z,99.90
2024-03-13T11:21:48.601Z,99.90
2024-03-13T11:22:50.600Z,99.90
2024-03-13T11:23:52.616Z,99.90
2024-03-13T11:24:55.579Z,99.90
2024-03-13T11:25:57.872Z,99.90
2024-03-13T11:27:00.917Z,99.90
2024-03-13T11:28:03.470Z,99.90
2024-03-13T11:29:05.693Z,99.90
2024-03-13T11:30:09.341Z,99.90
2024-03-13T11:31:12.558Z,99.90
2024-03-13T11:32:15.578Z,99.90
2024-03-13T11:33:18.094Z,99.90
2024-03-13T11:34:21.272Z,99.90
2024-03-13T11:35:23.480Z,99.90
2024-03-13T11:36:26.653Z,99.90
2024-03-13T11:37:28.918Z,99.90
2024-03-13T11:38:34.952Z,99.90
2024-03-13T11:39:37.143Z,99.90
2024-03-13T11:40:41.270Z,99.90
2024-03-13T11:41:44.106Z,99.90
2024-03-13T11:42:47.619Z,99.90
2024-03-13T11:43:50.588Z,99.90
2024-03-13T11:44:53.582Z,99.90
2024-03-13T11:45:55.780Z,99.90
2024-03-13T11:46:59.393Z,99.90
2024-03-13T11:48:02.653Z,99.90
2024-03-13T11:49:08.482Z,99.90
2024-03-13T11:50:13.027Z,99.90
2024-03-13T11:51:16.313Z,99.90
2024-03-13T11:52:18.451Z,99.90
2024-03-13T11:53:22.500Z,99.90
2024-03-13T11:54:29.530Z,99.90
2024-03-13T11:55:32.549Z,99.90
2024-03-13T11:56:34.991Z,99.90
2024-03-13T11:57:38.122Z,99.90
2024-03-13T11:58:41.005Z,99.90
2024-03-13T11:59:44.558Z,99.90
2024-03-13T12:00:47.884Z,99.90
2024-03-13T12:01:52.217Z,99.90
2024-03-13T12:02:54.291Z,99.90
2024-03-13T12:03:58.414Z,99.90
2024-03-13T12:05:02.063Z,99.90
2024-03-13T12:06:06.524Z,99.90
2024-03-13T12:07:09.233Z,99.90
2024-03-13T12:08:12.326Z,99.90
2024-03-13T12:09:16.972Z,99.90
2024-03-13T12:10:21.138Z,99.90
2024-03-13T12:11:27.383Z,99.90
2024-03-13T12:12:29.425Z,99.90
2024-03-13T12:13:34.367Z,99.90
2024-03-13T12:14:39.543Z,99.90
2024-03-13T12:15:43.536Z,99.90
2024-03-13T12:16:45.631Z,99.90
2024-03-13T12:17:51.087Z,99.90
2024-03-13T12:18:54.156Z,99.90
2024-03-13T12:19:57.458Z,99.90
2024-03-13T12:20:59.553Z,99.90
2024-03-13T12:22:04.065Z,99.90
2024-03-13T12:23:06.381Z,99.90
2024-03-13T12:24:09.765Z,99.90
2024-03-13T12:25:13.323Z,99.90
2024-03-13T12:26:16.676Z,99.90
2024-03-13T12:27:19.449Z,99.90
2024-03-13T12:28:22.668Z,99.90
2024-03-13T12:29:28.879Z,99.90
2024-03-13T12:30:32.229Z,99.90
2024-03-13T12:31:36.853Z,99.90
2024-03-13T12:32:39.991Z,99.90
2024-03-13T12:33:42.277Z,99.90
2024-03-13T12:34:45.354Z,99.90
2024-03-13T12:35:56.022Z,99.90
2024-03-13T12:36:59.284Z,99.90
2024-03-13T12:38:02.235Z,99.90
2024-03-13T12:39:06.143Z,99.90
2024-03-13T12:40:09.710Z,99.90
2024-03-13T12:41:13.043Z,99.90
2024-03-13T12:42:15.422Z,99.90
2024-03-13T12:43:18.573Z,99.90
2024-03-13T12:44:20.655Z,99.90
2024-03-13T12:45:23.812Z,99.90
2024-03-13T12:46:26.003Z,99.90
2024-03-13T12:47:29.007Z,99.90
2024-03-13T12:48:32.223Z,99.90
2024-03-13T12:49:36.255Z,99.90
2024-03-13T12:50:38.557Z,99.90
2024-03-13T12:51:41.787Z,99.90
2024-03-13T12:52:45.509Z,99.90
2024-03-13T12:53:48.735Z,99.90
2024-03-13T12:54:50.792Z,99.90
2024-03-13T12:55:53.871Z,99.90
2024-03-13T12:56:56.147Z,99.90
2024-03-13T12:58:06.308Z,99.90
2024-03-13T12:59:11.770Z,99.90
2024-03-13T13:00:19.820Z,99.90
2024-03-13T13:01:23.468Z,99.10
2024-03-13T13:02:25.533Z,99.30
2024-03-13T13:03:28.551Z,99.40
2024-03-13T13:04:30.610Z,99.00
2024-03-13T13:05:34.459Z,97.50
2024-03-13T13:06:36.943Z,96.80
2024-03-13T13:07:49.666Z,96.50
2024-03-13T13:08:51.763Z,95.00
2024-03-13T13:09:56.324Z,95.10
2024-03-13T13:10:59.105Z,95.40
2024-03-13T13:12:02.851Z,95.50
2024-03-13T13:13:04.867Z,94.10
2024-03-13T13:14:08.985Z,93.80
2024-03-13T13:15:13.958Z,93.10
2024-03-13T13:16:17.165Z,90.40
2024-03-13T13:17:19.817Z,91.10
2024-03-13T13:18:22.959Z,90.70
2024-03-13T13:19:25.163Z,89.50
2024-03-13T13:20:28.177Z,87.20
2024-03-13T13:21:30.313Z,84.80
2024-03-13T13:22:32.387Z,83.80
2024-03-13T13:23:36.932Z,82.00
2024-03-13T13:24:39.048Z,83.70
2024-03-13T13:25:42.285Z,83.50
2024-03-13T13:26:44.692Z,83.90
2024-03-13T13:27:50.486Z,85.10
2024-03-13T13:29:08.208Z,84.50
2024-03-13T13:30:14.192Z,85.60
2024-03-13T13:31:17.594Z,82.20
2024-03-13T13:32:20.612Z,83.20
2024-03-13T13:33:22.738Z,85.00
2024-03-13T13:34:25.760Z,83.70
2024-03-13T13:35:27.810Z,82.60
2024-03-13T13:36:30.858Z,84.80
2024-03-13T13:37:33.801Z,84.30
2024-03-13T13:38:36.994Z,83.20
2024-03-13T13:39:39.783Z,83.90
2024-03-13T13:40:42.829Z,84.70
2024-03-13T13:41:44.955Z,84.80
2024-03-13T13:42:50.023Z,86.50
2024-03-13T13:43:53.843Z,88.20
2024-03-13T13:44:56.101Z,87.00
2024-03-13T13:45:59.545Z,89.00
2024-03-13T13:47:01.576Z,89.80
2024-03-13T13:48:03.915Z,90.80
2024-03-13T13:49:09.207Z,90.60
2024-03-13T13:50:11.728Z,91.60
2024-03-13T13:51:15.038Z,91.80
2024-03-13T13:52:17.105Z,92.10
2024-03-13T13:53:20.290Z,93.70
2024-03-13T13:54:22.352Z,94.20
2024-03-13T13:55:25.088Z,94.60
2024-03-13T13:56:28.178Z,94.80
2024-03-13T13:57:40.084Z,95.30
2024-03-13T13:58:51.511Z,96.40
2024-03-13T13:59:53.573Z,96.20
2024-03-13T14:00:56.574Z,97.20
2024-03-13T14:01:59.049Z,97.10
2024-03-13T14:03:02.367Z,97.60
2024-03-13T14:04:06.601Z,97.70
2024-03-13T14:05:10.774Z,98.60
2024-03-13T14:06:14.002Z,99.80
2024-03-13T14:07:16.199Z,99.90
2024-03-13T14:08:20.211Z,99.90
2024-03-13T14:09:23.605Z,99.90
2024-03-13T14:10:25.683Z,99.90
2024-03-13T14:11:29.012Z,99.90
2024-03-13T14:12:34.072Z,99.90
2024-03-13T14:13:43.403Z,99.90
2024-03-13T14:14:45.727Z,99.60
2024-03-13T14:15:48.822Z,99.90
2024-03-13T14:16:50.889Z,99.90
2024-03-13T14:17:54.513Z,99.90
2024-03-13T14:18:57.757Z,99.90
2024-03-13T14:20:01.213Z,99.90
2024-03-13T14:21:05.233Z,99.90
2024-03-13T14:22:09.331Z,99.90
2024-03-13T14:23:13.424Z,99.80
2024-03-13T14:24:16.516Z,99.50
2024-03-13T14:25:18.726Z,99.30
2024-03-13T14:26:21.755Z,99.50
2024-03-13T14:27:23.854Z,99.90
2024-03-13T14:28:27.164Z,99.30
2024-03-13T14:29:29.183Z,99.70
2024-03-13T14:30:32.262Z,99.50
2024-03-13T14:31:34.639Z,98.40
2024-03-13T14:32:36.743Z,98.70
2024-03-13T14:33:41.244Z,98.40
2024-03-13T14:34:54.713Z,98.60
2024-03-13T14:36:02.290Z,97.50
2024-03-13T14:37:05.440Z,96.50
2024-03-13T14:38:07.442Z,96.90
2024-03-13T14:39:15.254Z,97.20
2024-03-13T14:40:19.339Z,96.90
2024-03-13T14:41:24.195Z,97.50